createdAt,value
2022-12-01T00:04:15.145Z,7
2022-12-01T00:10:05.091Z,8
2022-12-01T00:15:05.085Z,8
2022-12-01T00:20:15.380Z,7
2022-12-01T00:25:15.385Z,8
2022-12-01T00:31:05.065Z,8
2022-12-01T00:36:05.141Z,8
2022-12-01T00:41:15.351Z,8
2022-12-01T00:46:15.593Z,8
2022-12-01T00:52:05.080Z,8
2022-12-01T00:57:15.174Z,10
2022-12-01T01:02:15.452Z,9
2022-12-01T01:07:15.334Z,11
2022-12-01T01:12:15.342Z,10
2022-12-01T01:18:05.075Z,9
2022-12-01T01:23:15.325Z,10
2022-12-01T01:28:15.340Z,13
2022-12-01T01:34:05.096Z,11
2022-12-01T01:39:15.402Z,11
2022-12-01T01:45:05.092Z,12
2022-12-01T01:50:15.338Z,11
2022-12-01T01:55:15.368Z,14
2022-12-01T02:01:05.177Z,12
2022-12-01T02:06:05.344Z,11
2022-12-01T02:11:15.303Z,11
2022-12-01T02:17:04.904Z,12
2022-12-01T02:22:05.073Z,14
2022-12-01T02:27:15.324Z,12
2022-12-01T02:33:04.836Z,13
2022-12-01T02:38:04.863Z,12
2022-12-01T02:43:04.878Z,12
2022-12-01T02:48:05.061Z,13
2022-12-01T02:53:15.356Z,12
2022-12-01T02:59:05.356Z,14
2022-12-01T03:04:15.313Z,13
2022-12-01T03:09:25.625Z,14
2022-12-01T03:15:05.041Z,14
2022-12-01T03:20:15.102Z,13
2022-12-01T03:25:15.323Z,12
2022-12-01T03:30:15.622Z,12
2022-12-01T03:36:05.043Z,13
2022-12-01T03:41:15.317Z,16
2022-12-01T03:46:15.406Z,14
2022-12-01T03:52:04.975Z,15
2022-12-01T03:57:05.042Z,14
2022-12-01T04:02:15.131Z,13
2022-12-01T04:07:15.184Z,13
2022-12-01T04:12:15.209Z,12
2022-12-01T04:18:05.047Z,13
2022-12-01T04:23:15.298Z,12
2022-12-01T04:28:15.331Z,13
2022-12-01T04:34:05.021Z,14
2022-12-01T04:39:15.283Z,12
2022-12-01T04:45:05.042Z,11
2022-12-01T04:50:05.024Z,12
2022-12-01T04:55:15.292Z,10
2022-12-01T05:01:04.941Z,11
2022-12-01T05:06:15.340Z,10
2022-12-01T05:12:04.865Z,13
2022-12-01T05:17:15.211Z,12
2022-12-01T05:23:06.297Z,11
2022-12-01T05:28:04.858Z,10
2022-12-01T05:33:15.061Z,12
2022-12-01T05:38:15.131Z,19
2022-12-01T05:43:15.144Z,20
2022-12-01T05:49:04.925Z,21
2022-12-01T05:54:15.131Z,22
2022-12-01T06:00:05.141Z,23
2022-12-01T06:05:20.852Z,25
2022-12-01T06:11:04.800Z,25
2022-12-01T06:16:04.878Z,22
2022-12-01T06:21:05.124Z,23
2022-12-01T06:26:15.101Z,24
2022-12-01T06:31:15.317Z,24
2022-12-01T06:36:15.356Z,23
2022-12-01T06:41:15.347Z,21
2022-12-01T06:47:05.020Z,23
2022-12-01T06:52:15.146Z,23
2022-12-01T06:57:15.306Z,25
2022-12-01T07:03:04.801Z,22
2022-12-01T07:08:04.960Z,21
2022-12-01T07:13:05.109Z,26
2022-12-01T07:18:15.520Z,24
2022-12-01T07:24:05.027Z,28
2022-12-01T07:29:04.994Z,26
2022-12-01T07:34:05.023Z,22
2022-12-01T07:39:15.328Z,25
2022-12-01T07:45:05.010Z,22
2022-12-01T07:50:15.278Z,23
2022-12-01T07:56:08.603Z,19
2022-12-01T08:01:05.106Z,19
2022-12-01T08:06:15.309Z,23
2022-12-01T08:11:15.383Z,19
2022-12-01T08:17:05.206Z,21
2022-12-01T08:22:15.271Z,18
2022-12-01T08:28:05.019Z,18
2022-12-01T08:33:05.041Z,18
2022-12-01T08:38:15.135Z,21
2022-12-01T08:43:34.682Z,21
2022-12-01T08:48:15.314Z,21
2022-12-01T08:54:05.003Z,18
2022-12-01T08:59:05.190Z,19
2022-12-01T09:04:15.081Z,18
2022-12-01T09:09:15.279Z,20
2022-12-01T09:15:04.806Z,20
2022-12-01T09:20:05.134Z,15
2022-12-01T09:25:15.060Z,15
2022-12-01T09:30:15.373Z,15
2022-12-01T09:36:05.084Z,15
2022-12-01T09:41:05.084Z,14
2022-12-01T09:46:15.391Z,13
2022-12-01T09:52:05.469Z,12
2022-12-01T09:57:15.277Z,9
2022-12-01T10:03:05.140Z,11
2022-12-01T10:08:15.266Z,10
2022-12-01T10:13:15.282Z,12
2022-12-01T10:19:05.017Z,12
2022-12-01T10:24:15.263Z,12
2022-12-01T10:29:15.284Z,13
2022-12-01T10:35:04.764Z,13
2022-12-01T10:40:05.101Z,15
2022-12-01T10:45:15.395Z,14
2022-12-01T10:51:05.092Z,16
2022-12-01T10:56:15.265Z,16
2022-12-01T11:01:15.395Z,18
2022-12-01T11:07:04.978Z,17
2022-12-01T11:12:04.979Z,17
2022-12-01T11:17:15.345Z,20
2022-12-01T11:23:04.813Z,24
2022-12-01T11:28:04.845Z,23
2022-12-01T11:33:15.116Z,22
2022-12-01T11:38:30.802Z,21
2022-12-01T11:44:12.709Z,23
2022-12-01T11:49:15.161Z,26
2022-12-01T11:55:09.958Z,26
2022-12-01T12:00:04.817Z,31
2022-12-01T12:05:15.067Z,31
2022-12-01T12:11:04.849Z,27
2022-12-01T12:16:04.857Z,32
2022-12-01T12:21:15.036Z,33
2022-12-01T12:26:15.112Z,35
2022-12-01T12:32:04.876Z,33
2022-12-01T12:37:05.015Z,31
2022-12-01T12:42:15.204Z,31
2022-12-01T12:48:05.039Z,35
2022-12-01T12:53:15.285Z,33
2022-12-01T12:59:04.778Z,30
2022-12-01T13:04:04.969Z,29
2022-12-01T13:09:15.140Z,29
2022-12-01T13:14:15.744Z,28
2022-12-01T13:20:04.983Z,31
2022-12-01T13:25:04.982Z,30
2022-12-01T13:30:05.079Z,31
2022-12-01T13:35:15.303Z,34
2022-12-01T13:41:04.970Z,35
2022-12-01T13:46:15.132Z,37
2022-12-01T13:51:19.189Z,38
2022-12-01T13:57:04.893Z,38
2022-12-01T14:02:05.057Z,38
2022-12-01T14:07:15.237Z,37
2022-12-01T14:13:04.930Z,45
2022-12-01T14:18:15.248Z,39
2022-12-01T14:24:04.989Z,42
2022-12-01T14:29:15.252Z,41
2022-12-01T14:35:04.915Z,38
2022-12-01T14:40:04.966Z,41
2022-12-01T14:45:15.338Z,38
2022-12-01T14:50:15.256Z,36
2022-12-01T14:56:04.960Z,42
2022-12-01T15:01:23.551Z,40
2022-12-01T15:07:04.975Z,39
2022-12-01T15:12:05.035Z,37
2022-12-01T15:17:15.245Z,33
2022-12-01T15:23:04.917Z,35
2022-12-01T15:28:04.945Z,37
2022-12-01T15:33:05.175Z,40
2022-12-01T15:38:15.211Z,40
2022-12-01T15:44:04.962Z,42
2022-12-01T15:49:05.060Z,39
2022-12-01T15:54:15.231Z,39
2022-12-01T15:59:15.295Z,39
2022-12-01T16:05:04.729Z,35
2022-12-01T16:10:04.832Z,35
2022-12-01T16:15:04.975Z,34
2022-12-01T16:20:15.073Z,36
2022-12-01T16:26:04.918Z,35
2022-12-01T16:31:15.487Z,34
2022-12-01T16:36:15.271Z,36
2022-12-01T16:42:05.035Z,32
2022-12-01T16:47:04.942Z,34
2022-12-01T16:52:42.985Z,34
2022-12-01T16:57:15.277Z,37
2022-12-01T17:03:04.999Z,34
2022-12-01T17:08:05.051Z,34
2022-12-01T17:13:05.606Z,34
2022-12-01T17:18:15.230Z,33
2022-12-01T17:23:15.380Z,42
2022-12-01T17:29:04.804Z,39
2022-12-01T17:34:04.857Z,45
2022-12-01T17:39:14.970Z,45
2022-12-01T17:44:14.990Z,41
2022-12-01T17:49:15.055Z,40
2022-12-01T17:54:15.043Z,46
2022-12-01T17:59:15.133Z,43
2022-12-01T18:05:04.891Z,40
2022-12-01T18:10:15.158Z,42
2022-12-01T18:16:04.769Z,45
2022-12-01T18:21:04.787Z,41
2022-12-01T18:26:16.164Z,41
2022-12-01T18:32:04.764Z,43
2022-12-01T18:37:15.029Z,39
2022-12-01T18:42:15.026Z,35
2022-12-01T18:48:04.694Z,38
2022-12-01T18:53:04.953Z,39
2022-12-01T18:58:04.962Z,38
2022-12-01T19:03:15.172Z,35
2022-12-01T19:09:04.922Z,37
2022-12-01T19:14:04.959Z,36
2022-12-01T19:19:15.163Z,34
2022-12-01T19:24:15.205Z,36
2022-12-01T19:30:04.915Z,31
2022-12-01T19:35:15.197Z,32
2022-12-01T19:41:05.000Z,83
2022-12-01T19:46:15.200Z,33
2022-12-01T19:51:15.170Z,37
2022-12-01T19:57:04.693Z,31
2022-12-01T20:02:04.933Z,32
2022-12-01T20:07:14.999Z,29
2022-12-01T20:12:24.720Z,28
2022-12-01T20:18:04.656Z,29
2022-12-01T20:23:04.710Z,27
2022-12-01T20:28:14.980Z,33
2022-12-01T20:33:15.167Z,28
2022-12-01T20:38:15.184Z,28
2022-12-01T20:44:07.513Z,29
2022-12-01T20:49:04.900Z,30
2022-12-01T20:54:27.323Z,26
2022-12-01T20:59:05.080Z,27
2022-12-01T21:04:15.650Z,29
2022-12-01T21:09:25.261Z,29
2022-12-01T21:15:04.872Z,28
2022-12-01T21:20:15.186Z,23
2022-12-01T21:26:04.683Z,24
2022-12-01T21:31:05.022Z,24
2022-12-01T21:36:15.165Z,27
2022-12-01T21:42:04.879Z,23
2022-12-01T21:47:14.936Z,23
2022-12-01T21:52:15.035Z,22
2022-12-01T21:58:04.888Z,21
2022-12-01T22:03:14.956Z,22
2022-12-01T22:08:15.097Z,22
2022-12-01T22:13:15.135Z,23
2022-12-01T22:18:15.151Z,22
2022-12-01T22:24:04.881Z,22
2022-12-01T22:29:04.879Z,21
2022-12-01T22:34:04.870Z,23
2022-12-01T22:39:04.892Z,20
2022-12-01T22:44:15.163Z,21
2022-12-01T22:50:04.854Z,21
2022-12-01T22:55:04.862Z,19
2022-12-01T23:00:15.172Z,21
2022-12-01T23:06:04.799Z,20
2022-12-01T23:11:15.148Z,20
2022-12-01T23:17:04.876Z,19
2022-12-01T23:22:04.858Z,19
2022-12-01T23:27:05.353Z,19
2022-12-01T23:32:15.167Z,23
2022-12-01T23:38:04.659Z,20
2022-12-01T23:43:14.920Z,21
2022-12-01T23:48:14.963Z,20
2022-12-01T23:54:04.651Z,22
2022-12-01T23:59:04.710Z,21
